sensor_id;sensor_type;location;lat;lon;timestamp;pressure;altitude;pressure_sealevel;temperature;humidity
6194;BME280;3130;41.564;23.280;2022-11-15T00:00:00;99362.47;;;8.05;94.76
6194;BME280;3130;41.564;23.280;2022-11-15T00:02:27;99474.84;;;8.65;95.74
6194;BME280;3130;41.564;23.280;2022-11-15T00:04:54;99473.94;;;8.66;95.73
6194;BME280;3130;41.564;23.280;2022-11-15T00:07:21;99469.66;;;8.66;95.58
6194;BME280;3130;41.564;23.280;2022-11-15T00:09:49;99468.13;;;8.62;95.53
6194;BME280;3130;41.564;23.280;2022-11-15T00:12:16;99459.78;;;8.59;95.79
6194;BME280;3130;41.564;23.280;2022-11-15T00:14:43;99460.84;;;8.53;95.85
6194;BME280;3130;41.564;23.280;2022-11-15T00:17:10;99463.59;;;8.49;95.96
6194;BME280;3130;41.564;23.280;2022-11-15T00:19:37;99458.63;;;8.46;95.93
6194;BME280;3130;41.564;23.280;2022-11-15T00:22:04;99458.91;;;8.40;96.01
6194;BME280;3130;41.564;23.280;2022-11-15T00:24:31;99472.88;;;8.51;96.06
6194;BME280;3130;41.564;23.280;2022-11-15T00:27:00;99468.53;;;8.53;95.92
6194;BME280;3130;41.564;23.280;2022-11-15T00:29:27;99470.34;;;8.51;95.98
6194;BME280;3130;41.564;23.280;2022-11-15T00:31:54;99470.25;;;8.53;95.48
6194;BME280;3130;41.564;23.280;2022-11-15T00:34:21;99380.34;;;8.05;95.53
6194;BME280;3130;41.564;23.280;2022-11-15T00:36:48;99402.63;;;8.21;95.63
6194;BME280;3130;41.564;23.280;2022-11-15T00:39:15;99463.78;;;8.64;95.32
6194;BME280;3130;41.564;23.280;2022-11-15T00:41:42;99455.28;;;8.64;95.14
6194;BME280;3130;41.564;23.280;2022-11-15T00:44:11;99465.03;;;8.74;95.25
6194;BME280;3130;41.564;23.280;2022-11-15T00:46:38;99471.56;;;8.81;95.20
6194;BME280;3130;41.564;23.280;2022-11-15T00:49:05;99467.69;;;8.91;94.87
6194;BME280;3130;41.564;23.280;2022-11-15T00:51:32;99463.63;;;9.05;93.63
6194;BME280;3130;41.564;23.280;2022-11-15T00:53:59;99463.34;;;9.11;93.34
6194;BME280;3130;41.564;23.280;2022-11-15T00:56:26;99452.84;;;8.99;92.97
6194;BME280;3130;41.564;23.280;2022-11-15T00:58:53;99469.56;;;9.06;93.01
6194;BME280;3130;41.564;23.280;2022-11-15T01:01:22;99387.56;;;8.54;93.32
6194;BME280;3130;41.564;23.280;2022-11-15T01:03:49;99448.41;;;9.02;92.93
6194;BME280;3130;41.564;23.280;2022-11-15T01:06:16;99472.81;;;9.28;92.01
6194;BME280;3130;41.564;23.280;2022-11-15T01:08:43;99372.94;;;8.76;91.29
6194;BME280;3130;41.564;23.280;2022-11-15T01:11:11;99471.50;;;9.38;90.75
6194;BME280;3130;41.564;23.280;2022-11-15T01:13:39;99452.41;;;9.26;90.66
6194;BME280;3130;41.564;23.280;2022-11-15T01:16:08;99481.88;;;9.16;91.13
6194;BME280;3130;41.564;23.280;2022-11-15T01:18:37;99480.28;;;9.14;91.92
6194;BME280;3130;41.564;23.280;2022-11-15T01:21:06;99482.56;;;9.20;92.40
6194;BME280;3130;41.564;23.280;2022-11-15T01:23:34;99485.53;;;9.29;92.10
6194;BME280;3130;41.564;23.280;2022-11-15T01:26:01;99480.13;;;9.35;91.89
6194;BME280;3130;41.564;23.280;2022-11-15T01:28:30;99475.38;;;9.46;91.74
6194;BME280;3130;41.564;23.280;2022-11-15T01:30:58;99479.91;;;9.58;91.42
6194;BME280;3130;41.564;23.280;2022-11-15T01:33:26;99442.75;;;9.50;91.11
6194;BME280;3130;41.564;23.280;2022-11-15T01:35:54;99472.69;;;9.66;90.63
6194;BME280;3130;41.564;23.280;2022-11-15T01:38:22;99469.03;;;9.53;90.42
6194;BME280;3130;41.564;23.280;2022-11-15T01:40:49;99466.06;;;9.44;91.13
6194;BME280;3130;41.564;23.280;2022-11-15T01:43:21;99471.13;;;9.45;91.67
6194;BME280;3130;41.564;23.280;2022-11-15T01:45:52;99465.44;;;9.57;92.26
6194;BME280;3130;41.564;23.280;2022-11-15T01:48:21;99472.47;;;9.71;92.01
6194;BME280;3130;41.564;23.280;2022-11-15T01:50:49;99470.44;;;9.77;91.62
6194;BME280;3130;41.564;23.280;2022-11-15T01:53:20;99391.25;;;9.39;91.17
6194;BME280;3130;41.564;23.280;2022-11-15T01:55:48;99479.88;;;9.94;89.58
6194;BME280;3130;41.564;23.280;2022-11-15T01:58:15;99394.84;;;9.35;88.24
6194;BME280;3130;41.564;23.280;2022-11-15T02:00:42;99474.25;;;9.52;88.99
6194;BME280;3130;41.564;23.280;2022-11-15T02:03:09;99473.56;;;9.30;90.21
6194;BME280;3130;41.564;23.280;2022-11-15T02:05:37;99469.47;;;9.26;91.43
6194;BME280;3130;41.564;23.280;2022-11-15T02:08:05;99409.91;;;9.05;91.92
6194;BME280;3130;41.564;23.280;2022-11-15T02:10:34;99466.22;;;9.41;92.07
6194;BME280;3130;41.564;23.280;2022-11-15T02:13:01;99457.59;;;9.43;91.70
6194;BME280;3130;41.564;23.280;2022-11-15T02:15:34;99457.97;;;9.53;91.58
6194;BME280;3130;41.564;23.280;2022-11-15T02:18:15;99464.19;;;9.66;90.26
6194;BME280;3130;41.564;23.280;2022-11-15T02:21:08;99460.56;;;9.70;89.41
6194;BME280;3130;41.564;23.280;2022-11-15T02:30:35;99461.00;;;9.61;89.10
6194;BME280;3130;41.564;23.280;2022-11-15T02:33:12;99465.22;;;9.62;88.95
6194;BME280;3130;41.564;23.280;2022-11-15T02:35:48;99457.66;;;9.59;88.97
6194;BME280;3130;41.564;23.280;2022-11-15T02:38:24;99451.16;;;9.70;89.15
6194;BME280;3130;41.564;23.280;2022-11-15T02:40:58;99453.34;;;9.78;89.16
6194;BME280;3130;41.564;23.280;2022-11-15T02:43:32;99450.72;;;9.79;88.90
6194;BME280;3130;41.564;23.280;2022-11-15T02:46:24;99453.19;;;9.81;89.05
6194;BME280;3130;41.564;23.280;2022-11-15T02:49:08;99454.44;;;9.91;89.26
6194;BME280;3130;41.564;23.280;2022-11-15T02:51:36;99455.75;;;9.99;89.18
6194;BME280;3130;41.564;23.280;2022-11-15T02:54:03;99449.25;;;10.09;88.60
6194;BME280;3130;41.564;23.280;2022-11-15T02:56:30;99418.13;;;10.00;87.73
6194;BME280;3130;41.564;23.280;2022-11-15T02:59:13;99460.63;;;10.20;87.81
6194;BME280;3130;41.564;23.280;2022-11-15T03:01:56;99397.16;;;9.92;87.34
6194;BME280;3130;41.564;23.280;2022-11-15T03:04:35;99452.41;;;10.31;86.87
6194;BME280;3130;41.564;23.280;2022-11-15T03:07:09;99456.78;;;10.29;87.53
6194;BME280;3130;41.564;23.280;2022-11-15T03:09:42;99352.78;;;9.57;88.01
6194;BME280;3130;41.564;23.280;2022-11-15T03:12:13;99378.16;;;9.79;88.24
6194;BME280;3130;41.564;23.280;2022-11-15T03:14:47;99435.75;;;10.22;88.37
6194;BME280;3130;41.564;23.280;2022-11-15T03:17:23;99446.28;;;10.33;88.24
6194;BME280;3130;41.564;23.280;2022-11-15T03:19:54;99375.69;;;9.94;87.89
6194;BME280;3130;41.564;23.280;2022-11-15T03:22:24;99380.06;;;9.92;88.24
6194;BME280;3130;41.564;23.280;2022-11-15T03:25:04;99443.03;;;10.47;87.65
6194;BME280;3130;41.564;23.280;2022-11-15T03:27:37;99431.56;;;10.37;87.29
6194;BME280;3130;41.564;23.280;2022-11-15T03:30:08;99436.56;;;10.40;87.03
6194;BME280;3130;41.564;23.280;2022-11-15T03:32:39;99441.63;;;10.41;86.73
6194;BME280;3130;41.564;23.280;2022-11-15T03:35:11;99438.91;;;10.44;86.16
6194;BME280;3130;41.564;23.280;2022-11-15T03:37:43;99441.81;;;10.54;85.57
6194;BME280;3130;41.564;23.280;2022-11-15T03:40:12;99439.13;;;10.40;85.06
6194;BME280;3130;41.564;23.280;2022-11-15T03:42:44;99419.94;;;10.14;84.93
6194;BME280;3130;41.564;23.280;2022-11-15T03:45:16;99424.28;;;9.96;85.03
6194;BME280;3130;41.564;23.280;2022-11-15T03:47:49;99424.34;;;9.77;86.63
6194;BME280;3130;41.564;23.280;2022-11-15T03:50:19;99419.75;;;9.67;87.14
6194;BME280;3130;41.564;23.280;2022-11-15T03:52:48;99420.78;;;9.63;87.82
6194;BME280;3130;41.564;23.280;2022-11-15T03:55:18;99413.41;;;9.57;88.26
6194;BME280;3130;41.564;23.280;2022-11-15T03:57:46;99414.63;;;9.67;88.07
6194;BME280;3130;41.564;23.280;2022-11-15T04:00:15;99407.56;;;9.72;87.34
6194;BME280;3130;41.564;23.280;2022-11-15T04:02:42;99382.97;;;9.51;87.38
6194;BME280;3130;41.564;23.280;2022-11-15T04:05:11;99397.00;;;9.61;87.84
6194;BME280;3130;41.564;23.280;2022-11-15T04:07:38;99406.84;;;9.68;87.87
6194;BME280;3130;41.564;23.280;2022-11-15T04:10:06;99367.91;;;9.45;87.73
6194;BME280;3130;41.564;23.280;2022-11-15T04:12:35;99403.22;;;9.55;88.40
6194;BME280;3130;41.564;23.280;2022-11-15T04:15:05;99395.56;;;9.55;88.84
6194;BME280;3130;41.564;23.280;2022-11-15T04:17:38;99402.94;;;9.61;89.03
6194;BME280;3130;41.564;23.280;2022-11-15T04:20:08;99361.97;;;9.44;88.79
6194;BME280;3130;41.564;23.280;2022-11-15T04:22:55;99375.75;;;9.59;89.04
6194;BME280;3130;41.564;23.280;2022-11-15T04:25:40;99341.72;;;9.40;89.26
6194;BME280;3130;41.564;23.280;2022-11-15T04:28:07;99375.84;;;9.57;89.02
6194;BME280;3130;41.564;23.280;2022-11-15T04:30:34;99376.13;;;9.68;89.56
6194;BME280;3130;41.564;23.280;2022-11-15T04:33:01;99355.72;;;9.67;89.16
6194;BME280;3130;41.564;23.280;2022-11-15T04:35:29;99317.47;;;9.47;88.33
6194;BME280;3130;41.564;23.280;2022-11-15T04:37:58;99377.72;;;9.88;88.50
6194;BME280;3130;41.564;23.280;2022-11-15T04:40:25;99377.59;;;9.91;88.33
6194;BME280;3130;41.564;23.280;2022-11-15T04:42:52;99348.19;;;9.81;88.08
6194;BME280;3130;41.564;23.280;2022-11-15T04:45:19;99366.25;;;9.95;88.00
6194;BME280;3130;41.564;23.280;2022-11-15T04:47:46;99265.16;;;9.35;87.90
6194;BME280;3130;41.564;23.280;2022-11-15T04:50:14;99368.91;;;10.10;87.48
6194;BME280;3130;41.564;23.280;2022-11-15T04:52:42;99362.03;;;10.10;86.83
6194;BME280;3130;41.564;23.280;2022-11-15T04:55:10;99365.75;;;10.05;86.98
6194;BME280;3130;41.564;23.280;2022-11-15T04:57:38;99347.66;;;9.91;87.06
6194;BME280;3130;41.564;23.280;2022-11-15T05:00:07;99340.84;;;9.75;87.23
6194;BME280;3130;41.564;23.280;2022-11-15T05:02:34;99362.50;;;9.85;87.48
6194;BME280;3130;41.564;23.280;2022-11-15T05:05:18;99361.66;;;9.84;87.45
6194;BME280;3130;41.564;23.280;2022-11-15T05:07:45;99366.97;;;9.81;87.10
6194;BME280;3130;41.564;23.280;2022-11-15T05:10:14;99367.94;;;9.79;87.43
6194;BME280;3130;41.564;23.280;2022-11-15T05:12:41;99368.75;;;9.79;86.94
6194;BME280;3130;41.564;23.280;2022-11-15T05:15:09;99365.84;;;9.70;86.50
6194;BME280;3130;41.564;23.280;2022-11-15T05:17:36;99363.19;;;9.54;86.99
6194;BME280;3130;41.564;23.280;2022-11-15T05:20:04;99371.59;;;9.39;87.68
6194;BME280;3130;41.564;23.280;2022-11-15T05:22:31;99374.53;;;9.32;88.53
6194;BME280;3130;41.564;23.280;2022-11-15T05:24:58;99377.31;;;9.27;88.85
6194;BME280;3130;41.564;23.280;2022-11-15T05:27:27;99371.22;;;9.30;89.28
6194;BME280;3130;41.564;23.280;2022-11-15T05:29:54;99371.59;;;9.39;88.57
6194;BME280;3130;41.564;23.280;2022-11-15T05:32:21;99339.06;;;9.24;88.59
6194;BME280;3130;41.564;23.280;2022-11-15T05:34:48;99373.94;;;9.44;87.70
6194;BME280;3130;41.564;23.280;2022-11-15T05:37:16;99343.16;;;9.28;87.68
6194;BME280;3130;41.564;23.280;2022-11-15T05:39:43;99352.47;;;9.29;87.33
6194;BME280;3130;41.564;23.280;2022-11-15T05:42:12;99387.94;;;9.37;87.49
6194;BME280;3130;41.564;23.280;2022-11-15T05:44:44;99385.38;;;9.37;88.65
6194;BME280;3130;41.564;23.280;2022-11-15T05:47:14;99388.53;;;9.42;88.71
6194;BME280;3130;41.564;23.280;2022-11-15T05:49:44;99396.78;;;9.48;88.93
6194;BME280;3130;41.564;23.280;2022-11-15T05:52:14;99389.63;;;9.55;89.29
6194;BME280;3130;41.564;23.280;2022-11-15T05:54:42;99399.63;;;9.59;89.08
6194;BME280;3130;41.564;23.280;2022-11-15T05:57:10;99398.50;;;9.65;89.82
6194;BME280;3130;41.564;23.280;2022-11-15T05:59:37;99397.38;;;9.70;89.87
6194;BME280;3130;41.564;23.280;2022-11-15T06:02:08;99395.50;;;9.74;89.32
6194;BME280;3130;41.564;23.280;2022-11-15T06:04:35;99385.47;;;9.69;89.62
6194;BME280;3130;41.564;23.280;2022-11-15T06:07:02;99325.63;;;9.38;89.42
6194;BME280;3130;41.564;23.280;2022-11-15T06:09:29;99404.16;;;9.88;89.19
6194;BME280;3130;41.564;23.280;2022-11-15T06:11:56;99402.66;;;9.84;89.14
6194;BME280;3130;41.564;23.280;2022-11-15T06:14:23;99403.19;;;9.74;89.92
6194;BME280;3130;41.564;23.280;2022-11-15T06:16:51;99368.38;;;9.36;90.71
6194;BME280;3130;41.564;23.280;2022-11-15T06:19:19;99318.94;;;9.00;91.41
6194;BME280;3130;41.564;23.280;2022-11-15T06:21:46;99377.09;;;9.32;92.10
6194;BME280;3130;41.564;23.280;2022-11-15T06:24:13;99391.72;;;9.47;92.79
6194;BME280;3130;41.564;23.280;2022-11-15T06:26:40;99370.03;;;9.37;92.33
6194;BME280;3130;41.564;23.280;2022-11-15T06:29:07;99410.56;;;9.63;92.56
6194;BME280;3130;41.564;23.280;2022-11-15T06:31:34;99339.22;;;9.21;92.04
6194;BME280;3130;41.564;23.280;2022-11-15T06:34:01;99413.34;;;9.75;92.23
6194;BME280;3130;41.564;23.280;2022-11-15T06:36:30;99346.84;;;9.40;92.10
6194;BME280;3130;41.564;23.280;2022-11-15T06:38:57;99419.53;;;9.88;91.68
6194;BME280;3130;41.564;23.280;2022-11-15T06:41:24;99420.63;;;10.01;91.27
6194;BME280;3130;41.564;23.280;2022-11-15T06:43:51;99415.78;;;10.12;91.18
6194;BME280;3130;41.564;23.280;2022-11-15T06:46:19;99416.06;;;10.23;90.53
6194;BME280;3130;41.564;23.280;2022-11-15T06:48:46;99418.47;;;10.26;89.85
6194;BME280;3130;41.564;23.280;2022-11-15T06:51:13;99292.88;;;9.44;89.59
6194;BME280;3130;41.564;23.280;2022-11-15T06:53:42;99385.28;;;10.07;88.99
6194;BME280;3130;41.564;23.280;2022-11-15T06:56:09;99414.94;;;10.28;89.11
6194;BME280;3130;41.564;23.280;2022-11-15T06:58:36;99385.84;;;10.12;89.05
6194;BME280;3130;41.564;23.280;2022-11-15T07:01:05;99405.13;;;10.36;89.25
6194;BME280;3130;41.564;23.280;2022-11-15T07:03:34;99413.94;;;10.48;88.73
6194;BME280;3130;41.564;23.280;2022-11-15T07:06:02;99418.00;;;10.52;87.75
6194;BME280;3130;41.564;23.280;2022-11-15T07:08:29;99288.03;;;9.72;87.63
6194;BME280;3130;41.564;23.280;2022-11-15T07:11:00;99411.66;;;10.42;87.95
6194;BME280;3130;41.564;23.280;2022-11-15T07:13:29;99405.38;;;10.32;88.44
6194;BME280;3130;41.564;23.280;2022-11-15T07:16:01;99405.47;;;10.46;88.82
6194;BME280;3130;41.564;23.280;2022-11-15T07:18:28;99400.19;;;10.49;88.30
6194;BME280;3130;41.564;23.280;2022-11-15T07:20:55;99406.50;;;10.59;87.92
6194;BME280;3130;41.564;23.280;2022-11-15T07:23:22;99414.78;;;10.64;87.44
6194;BME280;3130;41.564;23.280;2022-11-15T07:25:49;99415.38;;;10.69;87.20
6194;BME280;3130;41.564;23.280;2022-11-15T07:28:18;99413.06;;;10.80;86.48
6194;BME280;3130;41.564;23.280;2022-11-15T07:30:45;99337.81;;;10.33;86.17
6194;BME280;3130;41.564;23.280;2022-11-15T07:33:12;99400.25;;;10.80;86.70
6194;BME280;3130;41.564;23.280;2022-11-15T07:35:39;99404.16;;;10.87;86.00
6194;BME280;3130;41.564;23.280;2022-11-15T07:38:08;99410.03;;;10.89;85.90
6194;BME280;3130;41.564;23.280;2022-11-15T07:40:35;99400.50;;;10.91;85.48
6194;BME280;3130;41.564;23.280;2022-11-15T07:43:04;99409.94;;;10.90;84.79
6194;BME280;3130;41.564;23.280;2022-11-15T07:45:33;99410.25;;;10.84;84.65
6194;BME280;3130;41.564;23.280;2022-11-15T07:48:00;99412.81;;;10.69;84.45
6194;BME280;3130;41.564;23.280;2022-11-15T07:50:28;99394.78;;;10.38;84.73
6194;BME280;3130;41.564;23.280;2022-11-15T07:52:58;99362.88;;;10.11;85.34
6194;BME280;3130;41.564;23.280;2022-11-15T07:55:27;99354.53;;;10.07;86.19
6194;BME280;3130;41.564;23.280;2022-11-15T07:58:00;99417.31;;;10.48;85.75
6194;BME280;3130;41.564;23.280;2022-11-15T08:00:28;99375.56;;;10.29;85.46
6194;BME280;3130;41.564;23.280;2022-11-15T08:03:03;99416.00;;;10.57;86.04
6194;BME280;3130;41.564;23.280;2022-11-15T08:05:30;99414.19;;;10.59;86.05
6194;BME280;3130;41.564;23.280;2022-11-15T08:07:57;99395.72;;;10.52;86.13
6194;BME280;3130;41.564;23.280;2022-11-15T08:10:25;99345.81;;;10.27;85.45
6194;BME280;3130;41.564;23.280;2022-11-15T08:12:59;99420.94;;;10.77;86.01
6194;BME280;3130;41.564;23.280;2022-11-15T08:15:27;99412.25;;;10.79;85.90
6194;BME280;3130;41.564;23.280;2022-11-15T08:17:55;99394.78;;;10.70;85.88
6194;BME280;3130;41.564;23.280;2022-11-15T08:20:25;99423.44;;;10.94;86.05
6194;BME280;3130;41.564;23.280;2022-11-15T08:22:55;99419.88;;;10.96;85.83
6194;BME280;3130;41.564;23.280;2022-11-15T08:25:22;99421.19;;;11.03;85.63
6194;BME280;3130;41.564;23.280;2022-11-15T08:27:52;99399.28;;;10.98;85.04
6194;BME280;3130;41.564;23.280;2022-11-15T08:30:20;99413.56;;;11.17;84.68
6194;BME280;3130;41.564;23.280;2022-11-15T08:32:47;99365.16;;;10.96;84.63
6194;BME280;3130;41.564;23.280;2022-11-15T08:35:15;99344.47;;;10.99;84.45
6194;BME280;3130;41.564;23.280;2022-11-15T08:37:44;99416.16;;;11.48;83.93
6194;BME280;3130;41.564;23.280;2022-11-15T08:40:12;99407.19;;;11.55;84.23
6194;BME280;3130;41.564;23.280;2022-11-15T08:42:39;99399.16;;;11.61;83.90
6194;BME280;3130;41.564;23.280;2022-11-15T08:45:08;99399.47;;;11.70;83.07
6194;BME280;3130;41.564;23.280;2022-11-15T08:47:35;99407.84;;;11.88;82.39
6194;BME280;3130;41.564;23.280;2022-11-15T08:50:02;99408.38;;;11.94;82.03
6194;BME280;3130;41.564;23.280;2022-11-15T08:52:30;99379.13;;;11.81;82.13
6194;BME280;3130;41.564;23.280;2022-11-15T08:54:58;99400.56;;;11.96;81.63
6194;BME280;3130;41.564;23.280;2022-11-15T08:57:28;99401.91;;;11.87;81.23
6194;BME280;3130;41.564;23.280;2022-11-15T08:59:55;99322.53;;;11.38;82.03
6194;BME280;3130;41.564;23.280;2022-11-15T09:02:23;99308.41;;;11.31;81.97
6194;BME280;3130;41.564;23.280;2022-11-15T09:04:50;99397.69;;;11.86;82.48
6194;BME280;3130;41.564;23.280;2022-11-15T09:07:17;99389.22;;;11.84;82.50
6194;BME280;3130;41.564;23.280;2022-11-15T09:09:44;99289.72;;;11.29;82.07
6194;BME280;3130;41.564;23.280;2022-11-15T09:12:14;99365.09;;;11.87;82.17
6194;BME280;3130;41.564;23.280;2022-11-15T09:14:41;99311.09;;;11.73;81.52
6194;BME280;3130;41.564;23.280;2022-11-15T09:17:08;99240.78;;;11.46;80.72
6194;BME280;3130;41.564;23.280;2022-11-15T09:19:36;99321.22;;;12.03;80.06
6194;BME280;3130;41.564;23.280;2022-11-15T09:22:06;99361.19;;;12.37;80.08
6194;BME280;3130;41.564;23.280;2022-11-15T09:24:33;99372.63;;;12.47;79.78
6194;BME280;3130;41.564;23.280;2022-11-15T09:27:00;99355.06;;;12.53;79.62
6194;BME280;3130;41.564;23.280;2022-11-15T09:29:29;99355.22;;;12.64;79.26
6194;BME280;3130;41.564;23.280;2022-11-15T09:31:56;99354.28;;;12.79;78.76
6194;BME280;3130;41.564;23.280;2022-11-15T09:34:24;99352.25;;;12.84;77.53
6194;BME280;3130;41.564;23.280;2022-11-15T09:36:51;99351.16;;;12.88;77.97
6194;BME280;3130;41.564;23.280;2022-11-15T09:39:18;99331.56;;;12.86;77.20
6194;BME280;3130;41.564;23.280;2022-11-15T09:42:08;99339.94;;;12.89;76.78
6194;BME280;3130;41.564;23.280;2022-11-15T09:44:52;99260.63;;;12.41;76.95
6194;BME280;3130;41.564;23.280;2022-11-15T09:47:57;99331.50;;;12.73;77.34
6194;BME280;3130;41.564;23.280;2022-11-15T09:50:32;99317.69;;;12.74;77.87
6194;BME280;3130;41.564;23.280;2022-11-15T09:53:01;99320.09;;;12.91;77.44
6194;BME280;3130;41.564;23.280;2022-11-15T09:55:35;99206.72;;;12.40;77.07
6194;BME280;3130;41.564;23.280;2022-11-15T09:58:14;99196.44;;;12.40;76.77
6194;BME280;3130;41.564;23.280;2022-11-15T10:00:47;99315.88;;;13.16;76.96
6194;BME280;3130;41.564;23.280;2022-11-15T10:03:23;99309.34;;;13.11;76.95
6194;BME280;3130;41.564;23.280;2022-11-15T10:05:55;99309.31;;;13.25;76.50
6194;BME280;3130;41.564;23.280;2022-11-15T10:08:37;99309.78;;;13.44;75.86
6194;BME280;3130;41.564;23.280;2022-11-15T10:11:09;99308.13;;;13.43;75.22
6194;BME280;3130;41.564;23.280;2022-11-15T10:13:40;99300.03;;;13.22;76.34
6194;BME280;3130;41.564;23.280;2022-11-15T10:16:26;99154.31;;;12.55;76.70
6194;BME280;3130;41.564;23.280;2022-11-15T10:19:03;99269.88;;;13.37;75.72
6194;BME280;3130;41.564;23.280;2022-11-15T10:21:40;99285.16;;;13.52;75.36
6194;BME280;3130;41.564;23.280;2022-11-15T10:24:13;99286.59;;;13.56;75.77
6194;BME280;3130;41.564;23.280;2022-11-15T10:26:46;99275.06;;;13.74;74.98
6194;BME280;3130;41.564;23.280;2022-11-15T10:29:18;99233.72;;;13.63;74.99
6194;BME280;3130;41.564;23.280;2022-11-15T10:31:49;99201.97;;;13.63;74.71
6194;BME280;3130;41.564;23.280;2022-11-15T10:34:19;99243.59;;;14.07;73.79
6194;BME280;3130;41.564;23.280;2022-11-15T10:36:54;99246.69;;;14.24;73.73
6194;BME280;3130;41.564;23.280;2022-11-15T10:39:22;99247.50;;;14.37;72.95
6194;BME280;3130;41.564;23.280;2022-11-15T10:41:50;99240.03;;;14.45;73.15
6194;BME280;3130;41.564;23.280;2022-11-15T10:44:21;99231.38;;;14.46;72.30
6194;BME280;3130;41.564;23.280;2022-11-15T10:47:06;99228.91;;;14.44;72.36
6194;BME280;3130;41.564;23.280;2022-11-15T10:49:57;99168.22;;;14.03;73.03
6194;BME280;3130;41.564;23.280;2022-11-15T10:52:25;99079.00;;;13.65;73.00
6194;BME280;3130;41.564;23.280;2022-11-15T10:54:56;99215.41;;;14.64;72.18
6194;BME280;3130;41.564;23.280;2022-11-15T10:57:25;99056.88;;;13.86;71.65
6194;BME280;3130;41.564;23.280;2022-11-15T10:59:55;99121.09;;;14.37;71.21
6194;BME280;3130;41.564;23.280;2022-11-15T11:02:29;99199.44;;;14.94;70.86
6194;BME280;3130;41.564;23.280;2022-11-15T11:04:57;99199.59;;;15.03;71.40
6194;BME280;3130;41.564;23.280;2022-11-15T11:07:26;99184.94;;;15.04;70.55
6194;BME280;3130;41.564;23.280;2022-11-15T11:09:59;99132.19;;;14.84;69.74
6194;BME280;3130;41.564;23.280;2022-11-15T11:12:28;99177.91;;;15.06;69.57
6194;BME280;3130;41.564;23.280;2022-11-15T11:14:58;99185.38;;;14.98;70.40
6194;BME280;3130;41.564;23.280;2022-11-15T11:17:40;99153.53;;;14.86;70.96
6194;BME280;3130;41.564;23.280;2022-11-15T11:20:18;99164.16;;;15.05;70.58
6194;BME280;3130;41.564;23.280;2022-11-15T11:22:58;99166.78;;;15.16;69.87
6194;BME280;3130;41.564;23.280;2022-11-15T11:25:33;99168.47;;;15.28;69.64
6194;BME280;3130;41.564;23.280;2022-11-15T11:28:23;99159.44;;;15.33;69.69
6194;BME280;3130;41.564;23.280;2022-11-15T11:31:00;99151.69;;;15.33;69.50
6194;BME280;3130;41.564;23.280;2022-11-15T11:33:42;99110.16;;;15.02;68.87
6194;BME280;3130;41.564;23.280;2022-11-15T11:36:19;99153.69;;;15.41;68.50
6194;BME280;3130;41.564;23.280;2022-11-15T11:38:56;99099.25;;;15.10;68.75
6194;BME280;3130;41.564;23.280;2022-11-15T11:41:47;99037.34;;;14.86;69.11
6194;BME280;3130;41.564;23.280;2022-11-15T11:44:33;99127.16;;;15.61;68.89
6194;BME280;3130;41.564;23.280;2022-11-15T11:47:03;99135.97;;;15.69;68.71
6194;BME280;3130;41.564;23.280;2022-11-15T11:49:39;99126.69;;;15.78;68.03
6194;BME280;3130;41.564;23.280;2022-11-15T11:52:11;99059.28;;;15.37;68.03
6194;BME280;3130;41.564;23.280;2022-11-15T11:54:47;98985.94;;;15.05;68.13
6194;BME280;3130;41.564;23.280;2022-11-15T11:57:51;99130.19;;;15.99;67.76
6194;BME280;3130;41.564;23.280;2022-11-15T12:00:24;99070.84;;;15.75;67.48
6194;BME280;3130;41.564;23.280;2022-11-15T12:03:04;99112.19;;;16.08;66.96
6194;BME280;3130;41.564;23.280;2022-11-15T12:05:39;99112.66;;;16.13;66.82
6194;BME280;3130;41.564;23.280;2022-11-15T12:08:20;99108.66;;;16.09;66.59
6194;BME280;3130;41.564;23.280;2022-11-15T12:10:54;99089.50;;;16.01;67.20
6194;BME280;3130;41.564;23.280;2022-11-15T12:13:26;99090.41;;;16.11;66.85
6194;BME280;3130;41.564;23.280;2022-11-15T12:15:58;99089.69;;;16.09;67.40
6194;BME280;3130;41.564;23.280;2022-11-15T12:18:30;99086.16;;;16.10;67.64
6194;BME280;3130;41.564;23.280;2022-11-15T12:21:01;99005.28;;;15.65;66.67
6194;BME280;3130;41.564;23.280;2022-11-15T12:23:35;99084.88;;;16.15;66.81
6194;BME280;3130;41.564;23.280;2022-11-15T12:26:07;99081.59;;;16.02;67.43
6194;BME280;3130;41.564;23.280;2022-11-15T12:28:39;99026.66;;;15.67;67.38
6194;BME280;3130;41.564;23.280;2022-11-15T12:31:13;99073.19;;;15.89;67.76
6194;BME280;3130;41.564;23.280;2022-11-15T12:33:45;99006.50;;;15.61;68.18
6194;BME280;3130;41.564;23.280;2022-11-15T12:36:33;99015.00;;;15.84;68.07
6194;BME280;3130;41.564;23.280;2022-11-15T12:39:04;99002.44;;;15.79;67.13
6194;BME280;3130;41.564;23.280;2022-11-15T12:41:33;99057.53;;;16.02;67.01
6194;BME280;3130;41.564;23.280;2022-11-15T12:44:03;98936.66;;;15.19;67.35
6194;BME280;3130;41.564;23.280;2022-11-15T12:46:59;99053.94;;;15.71;68.60
6194;BME280;3130;41.564;23.280;2022-11-15T12:49:43;98991.47;;;15.33;68.39
6194;BME280;3130;41.564;23.280;2022-11-15T12:52:12;98973.75;;;15.29;69.03
6194;BME280;3130;41.564;23.280;2022-11-15T12:55:28;99010.44;;;15.65;68.29
6194;BME280;3130;41.564;23.280;2022-11-15T13:01:07;98988.72;;;15.68;68.48
6194;BME280;3130;41.564;23.280;2022-11-15T13:03:34;99037.97;;;16.09;68.10
6194;BME280;3130;41.564;23.280;2022-11-15T13:06:08;98909.88;;;15.31;67.71
6194;BME280;3130;41.564;23.280;2022-11-15T13:08:46;99044.06;;;16.18;67.04
6194;BME280;3130;41.564;23.280;2022-11-15T13:11:51;99034.66;;;16.17;67.04
6194;BME280;3130;41.564;23.280;2022-11-15T13:14:47;99031.59;;;16.13;67.25
6194;BME280;3130;41.564;23.280;2022-11-15T13:17:33;99011.06;;;16.00;67.77
6194;BME280;3130;41.564;23.280;2022-11-15T13:20:20;98914.28;;;15.40;67.85
6194;BME280;3130;41.564;23.280;2022-11-15T13:22:49;99000.38;;;15.94;67.65
6194;BME280;3130;41.564;23.280;2022-11-15T13:25:45;99020.31;;;16.13;67.42
6194;BME280;3130;41.564;23.280;2022-11-15T13:28:30;99013.94;;;16.17;67.56
6194;BME280;3130;41.564;23.280;2022-11-15T13:31:00;99015.69;;;16.17;67.19
6194;BME280;3130;41.564;23.280;2022-11-15T13:33:32;99008.84;;;16.07;67.66
6194;BME280;3130;41.564;23.280;2022-11-15T13:36:07;99002.81;;;16.06;67.59
6194;BME280;3130;41.564;23.280;2022-11-15T13:38:37;98994.25;;;16.06;67.20
6194;BME280;3130;41.564;23.280;2022-11-15T13:41:19;98944.72;;;15.79;67.47
6194;BME280;3130;41.564;23.280;2022-11-15T13:43:48;98916.03;;;15.50;67.73
6194;BME280;3130;41.564;23.280;2022-11-15T13:46:17;98936.00;;;15.48;67.96